Avioradar koristi kolačiće da bi Vam omogućio jednostavnije i ugodnije korištenje stranice. 

AVIORADAR - Hrvatski zrakoplovni portal

METAR i TAF za zračne luke u Hrvatskoj

[Source: ADDS]
METAR
LDZA 200030Z 26003KT 9999 FEW045 01/00 Q1015 NOSIG =
LDSP 200030Z AUTO 35007KT 310V020 9999 -SHRA BKN028/// OVC031/// 08/04 Q1011 RETS =
LDDU 200030Z 17011KT 140V230 9999 FEW010 SCT014 BKN038 12/11 Q1011 =
LDPL 200030Z AUTO 09008KT CAVOK 04/00 Q1012 =
LDZD 200030Z 09010KT 050V140 9999 FEW020 SCT045 OVC074 06/01 Q1011 =
LDRI 192100Z 10011KT 050V150 9999 -RA FEW020 SCT040 BKN052 07/01 Q1012 =
LDOS 200030Z 26006KT 230V290 9999 SCT037 02/01 Q1015 =
TAF
LDZA 192325Z 2000/2100 23004KT 9999 SCT008 BKN030 TX05/2013Z TNM03/2007Z TEMPO 2000/2009 BKN005 PROB40 2003/2009 0100 FZFG VV001 PROB40 2009/2013 2000 BR =
LDSP 192325Z 2000/2100 05008KT 9999 FEW020 BKN030 TX11/2012Z TN05/2018Z TEMPO 2000/2003 4000 -RA PROB40 TEMPO 2000/2003 4000 TSRA FEW020CB BKN030 BECMG 2009/2011 32012KT BECMG 2015/2017 VRB02KT =
LDDU 192325Z 2000/2100 18010KT 9999 FEW020 BKN030 TX12/2000Z TN05/2022Z TEMPO 2000/2015 4000 -RA BKN012 PROB40 TEMPO 2002/2012 3000 TSRA FEW015CB BKN020 PROB40 2004/2010 02020G30KT BECMG 2008/2010 31010KT BECMG 2018/2019 VRB02KT =
LDPL 192325Z 2000/2100 06015KT CAVOK TX10/2012Z TN04/2006Z BECMG 2002/2004 06005KT PROB30 2011/2015 30008KT PROB40 TEMPO 2022/2100 SHRA FEW030TCU BKN040 =
LDZD 192325Z 2000/2100 07015KT CAVOK TX11/2013Z TN02/2006Z BECMG 2002/2004 07005KT BECMG 2010/2012 32008KT BECMG 2018/2020 14006KT =
LDRI 191725Z 1918/2018 VRB02KT 9999 SCT030 TX09/2013Z TN03/2004Z PROB40 TEMPO 1918/1922 TSRA FEW010 FEW025CB BKN030 BECMG 1920/1922 06015KT BECMG 2002/2004 VRB02KT =
LDOS 192325Z 2000/2100 22008KT 9999 BKN030 TX05/2013Z TNM01/2023Z PROB30 TEMPO 2000/2003 4000 -RASN PROB30 TEMPO 2000/2008 BKN008 BECMG 2006/2008 VRB02KT PROB30 2006/2009 0600 BCFG BECMG 2019/2021 11006KT =